Time;durP1;ratioP1;P1;durP2;ratioP2;P2;SDS_P1;SDS_P2;PMS_P1;PMS_P2;Temp;Humidity;BMP_temperature;BMP_pressure;BME280_temperature;BME280_humidity;BME280_pressure;Samples;Min_cycle;Max_cycle;Signal;HPM_P1;HPM_P2
2021/05/18 00:00:11;;;;;;;4.25;0.88;;;;;;;10.56;77.56;93206.75;5012508;28;20018;-71
2021/05/18 00:02:37;;;;;;;2.13;1.00;;;;;;;10.50;78.09;93202.72;4994342;28;20548;-71
2021/05/18 00:05:05;;;;;;;2.00;0.88;;;;;;;10.45;78.32;93203.72;4994750;28;20042;-71
2021/05/18 00:07:31;;;;;;;1.35;0.90;;;;;;;10.48;78.07;93203.06;5012525;28;20108;-70
2021/05/18 00:12:41;;;;;;;0.90;0.70;;;;;;;10.45;78.71;93195.72;5012152;28;20040;-71
2021/05/18 00:15:13;;;;;;;4.72;0.98;;;;;;;10.50;78.48;93203.53;5012061;28;20045;-71
2021/05/18 00:17:38;;;;;;;6.40;0.90;;;;;;;10.41;78.64;93206.25;5011867;28;20057;-71
2021/05/18 00:20:07;;;;;;;6.95;0.80;;;;;;;10.46;78.61;93229.25;4994387;28;20481;-71
2021/05/18 00:22:32;;;;;;;1.55;0.93;;;;;;;10.38;78.90;93228.22;4994366;28;20113;-71
2021/05/18 00:24:58;;;;;;;2.95;1.00;;;;;;;10.34;79.05;93237.97;4994157;28;20116;-71
2021/05/18 00:27:24;;;;;;;1.77;1.00;;;;;;;10.34;79.67;93235.31;4994508;28;20425;-71
2021/05/18 00:29:49;;;;;;;1.08;0.60;;;;;;;10.29;79.52;93238.13;5008889;28;20401;-71
2021/05/18 00:32:15;;;;;;;6.15;1.02;;;;;;;10.36;79.75;93245.63;5011864;28;20045;-71
2021/05/18 00:34:40;;;;;;;1.50;0.93;;;;;;;10.38;79.72;93246.09;4993790;28;20164;-71
2021/05/18 00:37:06;;;;;;;3.00;1.00;;;;;;;10.46;79.49;93247.91;5011520;28;20104;-71
2021/05/18 00:39:31;;;;;;;4.85;0.65;;;;;;;10.57;77.58;93254.41;5011725;28;20030;-70
2021/05/18 00:41:56;;;;;;;2.28;1.27;;;;;;;10.70;76.40;93243.78;5011550;28;20026;-70
2021/05/18 00:44:22;;;;;;;2.50;0.80;;;;;;;10.86;76.06;93254.59;5011431;28;20022;-70
2021/05/18 00:46:47;;;;;;;4.03;1.10;;;;;;;10.93;75.68;93262.84;4993904;28;20482;-71
2021/05/18 00:49:13;;;;;;;3.40;0.98;;;;;;;11.09;72.89;93282.44;5011309;28;20037;-71
2021/05/18 00:51:40;;;;;;;24.80;1.50;;;;;;;11.11;74.81;93308.78;5011423;28;20069;-70
2021/05/18 00:54:09;;;;;;;9.55;1.42;;;;;;;10.99;77.36;93304.97;4992869;28;20136;-71
2021/05/18 00:59:04;;;;;;;3.28;1.45;;;;;;;10.64;80.25;93323.94;5011048;28;20022;-71
2021/05/18 01:01:31;;;;;;;3.40;1.60;;;;;;;10.56;80.67;93318.66;5011296;28;20473;-71
2021/05/18 01:03:57;;;;;;;2.30;1.33;;;;;;;10.44;80.38;93298.06;5011106;28;20017;-70
2021/05/18 01:08:52;;;;;;;4.53;1.50;;;;;;;10.51;81.26;93230.94;5011060;28;20030;-70
2021/05/18 01:11:22;;;;;;;8.10;1.60;;;;;;;10.59;79.12;93236.19;4993311;28;20104;-70
2021/05/18 01:13:48;;;;;;;6.05;1.35;;;;;;;10.63;79.06;93233.66;5011205;28;20029;-70
2021/05/18 01:16:13;;;;;;;2.30;1.13;;;;;;;10.74;79.31;93224.13;5010800;28;20025;-70
2021/05/18 01:18:45;;;;;;;2.88;1.50;;;;;;;10.73;80.62;93233.25;4993381;28;20022;-70
2021/05/18 01:21:12;;;;;;;2.57;1.27;;;;;;;10.78;80.61;93256.25;5010860;28;20030;-70
2021/05/18 01:23:38;;;;;;;8.52;2.00;;;;;;;10.85;80.03;93256.50;4993018;28;20022;-70
2021/05/18 01:26:04;;;;;;;2.38;1.48;;;;;;;10.90;80.00;93255.50;5010645;28;20033;-70
2021/05/18 01:28:30;;;;;;;11.13;1.60;;;;;;;10.77;79.64;93262.69;5010694;28;20041;-70
2021/05/18 01:30:57;;;;;;;3.38;1.50;;;;;;;10.68;80.38;93267.31;4993149;28;20062;-70
2021/05/18 01:33:24;;;;;;;3.97;1.95;;;;;;;10.59;80.98;93278.06;5010534;28;20054;-69
2021/05/18 01:35:49;;;;;;;11.38;1.88;;;;;;;10.64;80.50;93288.50;5010536;28;20026;-70
2021/05/18 01:38:19;;;;;;;4.55;1.88;;;;;;;10.69;80.51;93288.31;4992915;28;20029;-70
2021/05/18 01:43:28;;;;;;;2.92;2.22;;;;;;;10.56;80.53;93278.69;5010597;28;20109;-70
2021/05/18 01:45:54;;;;;;;2.42;1.40;;;;;;;10.56;79.76;93276.03;5009181;28;20100;-70
2021/05/18 01:48:19;;;;;;;7.25;1.42;;;;;;;10.56;79.88;93276.84;5010517;28;20551;-71
2021/05/18 01:50:47;;;;;;;4.60;1.42;;;;;;;10.51;79.79;93279.69;5010189;28;20105;-71
2021/05/18 01:53:15;;;;;;;4.90;2.53;;;;;;;10.45;79.79;93296.97;5010099;28;20024;-71
2021/05/18 01:55:48;;;;;;;4.15;1.83;;;;;;;10.40;79.40;93305.16;5010070;28;20048;-71
2021/05/18 01:58:14;;;;;;;2.83;1.52;;;;;;;10.33;79.67;93319.00;4992703;28;20032;-71
2021/05/18 02:00:41;;;;;;;3.70;1.58;;;;;;;10.39;79.68;93312.38;4992156;28;20029;-70
2021/05/18 02:03:06;;;;;;;3.45;1.40;;;;;;;10.40;80.08;93308.59;5010199;28;20104;-71
2021/05/18 02:05:35;;;;;;;3.22;1.38;;;;;;;10.46;80.15;93301.19;5009974;28;20465;-71
2021/05/18 02:08:03;;;;;;;2.20;1.30;;;;;;;10.52;77.88;93307.09;4992079;28;20025;-71
2021/05/18 02:10:28;;;;;;;2.28;1.13;;;;;;;10.56;77.23;93305.34;4992408;28;20025;-72
2021/05/18 02:12:55;;;;;;;4.22;1.55;;;;;;;10.61;77.20;93305.16;5009879;28;20034;-71
2021/05/18 02:20:45;;;;;;;3.90;1.50;;;;;;;10.67;77.05;93314.50;5009928;28;20088;-71
2021/05/18 02:26:12;;;;;;;4.22;2.08;;;;;;;10.72;77.38;93337.50;4911209;29;20040;-71
2021/05/18 02:28:37;;;;;;;5.07;1.85;;;;;;;10.73;76.78;93347.09;4989100;28;20042;-71
2021/05/18 02:31:03;;;;;;;3.55;1.92;;;;;;;10.78;77.19;93355.66;5009483;28;20041;-71
2021/05/18 02:33:28;;;;;;;3.05;1.73;;;;;;;10.82;76.74;93353.13;5008304;28;20049;-71
2021/05/18 02:35:53;;;;;;;10.13;2.10;;;;;;;10.81;76.86;93348.91;5009454;28;20113;-71
2021/05/18 02:38:19;;;;;;;6.82;2.20;;;;;;;10.83;76.73;93360.03;5009550;28;20112;-70
2021/05/18 02:40:45;;;;;;;4.78;2.70;;;;;;;10.84;77.26;93373.00;5009751;28;20030;-70
2021/05/18 02:43:15;;;;;;;3.92;2.67;;;;;;;10.81;76.76;93367.56;5009267;28;20112;-71
2021/05/18 02:50:56;;;;;;;4.70;3.10;;;;;;;10.73;78.10;93381.75;5010164;28;20427;-71
2021/05/18 02:53:22;;;;;;;8.02;3.45;;;;;;;10.73;77.79;93387.06;5010086;28;20018;-71
2021/05/18 02:58:24;;;;;;;5.70;4.18;;;;;;;10.61;78.39;93388.53;5009749;28;20037;-71
2021/05/18 03:00:49;;;;;;;5.28;4.63;;;;;;;10.58;78.44;93386.53;4991916;28;20028;-71
2021/05/18 03:03:14;;;;;;;6.75;4.63;;;;;;;10.51;78.45;93386.25;5009298;28;20046;-70
2021/05/18 03:05:40;;;;;;;8.25;4.85;;;;;;;10.56;78.94;93385.28;4991841;28;20034;-70
2021/05/18 03:08:05;;;;;;;6.25;4.60;;;;;;;10.57;78.75;93374.31;4991580;28;20491;-71
2021/05/18 03:10:31;;;;;;;8.25;4.80;;;;;;;10.56;79.03;93377.28;4991736;28;20393;-71
2021/05/18 03:12:56;;;;;;;9.85;5.55;;;;;;;10.61;78.71;93375.22;4991759;28;20030;-71
2021/05/18 03:15:22;;;;;;;7.18;4.65;;;;;;;10.59;78.81;93376.66;4991772;28;20061;-71
2021/05/18 03:17:47;;;;;;;8.23;6.32;;;;;;;10.61;78.38;93375.22;5012293;28;20050;-71
2021/05/18 03:20:17;;;;;;;7.20;4.40;;;;;;;10.67;78.28;93375.03;4995162;28;20085;-71
2021/05/18 03:22:43;;;;;;;6.95;4.93;;;;;;;10.71;78.30;93375.94;4995347;28;20045;-71
2021/05/18 03:25:10;;;;;;;6.40;4.82;;;;;;;10.71;78.63;93373.28;4995172;28;20450;-71
2021/05/18 03:27:35;;;;;;;6.68;5.88;;;;;;;10.74;78.92;93372.63;5013094;28;20025;-71
2021/05/18 03:30:16;;;;;;;9.10;5.57;;;;;;;10.73;78.85;93361.19;5011758;28;20037;-71
2021/05/18 03:35:25;;;;;;;14.43;5.75;;;;;;;10.83;78.91;93373.34;5012901;28;20420;-71
2021/05/18 03:37:56;;;;;;;7.82;5.85;;;;;;;10.86;78.16;93372.69;5012683;28;20018;-71
2021/05/18 03:40:23;;;;;;;6.75;4.32;;;;;;;10.89;77.10;93369.38;4994799;28;20036;-71
2021/05/18 03:45:50;;;;;;;6.18;3.83;;;;;;;10.88;75.64;93378.47;4994678;28;20048;-71
2021/05/18 04:17:16;;;;;;;4.07;2.38;;;;;;;10.75;73.48;93409.63;5012070;28;20052;-71
2021/05/18 04:19:48;;;;;;;4.30;2.67;;;;;;;10.78;72.48;93402.84;5012122;28;20461;-71
2021/05/18 04:22:28;;;;;;;3.67;2.67;;;;;;;10.79;72.86;93405.19;5011772;28;20026;-71
2021/05/18 04:25:43;;;;;;;3.38;1.80;;;;;;;10.80;70.88;93416.63;5011883;28;20116;-70
2021/05/18 04:39:08;;;;;;;2.40;1.80;;;;;;;10.61;71.82;93433.06;5011414;28;20032;-71
2021/05/18 04:52:26;;;;;;;7.82;2.00;;;;;;;10.53;72.04;93442.69;5010902;28;20409;-71
2021/05/18 05:00:37;;;;;;;3.85;1.60;;;;;;;10.60;71.98;93472.28;5011186;28;20044;-71
2021/05/18 05:03:33;;;;;;;6.47;2.33;;;;;;;10.61;71.47;93459.72;4993546;28;20440;-71
2021/05/18 05:16:18;;;;;;;4.22;1.75;;;;;;;11.08;71.77;93474.78;5010467;28;20150;-73
2021/05/18 05:18:43;;;;;;;4.90;2.22;;;;;;;11.10;70.63;93486.69;5010682;28;20105;-73
2021/05/18 05:21:10;;;;;;;5.80;1.30;;;;;;;10.99;69.26;93488.97;4992718;28;20040;-73
2021/05/18 05:23:35;;;;;;;3.55;1.50;;;;;;;10.98;69.87;93487.41;5010250;28;20025;-73
2021/05/18 05:26:01;;;;;;;1.77;1.40;;;;;;;10.82;69.53;93486.41;5010457;28;20452;-73
2021/05/18 05:28:26;;;;;;;2.92;1.80;;;;;;;10.85;70.78;93493.78;5010334;28;20109;-73
2021/05/18 05:30:52;;;;;;;3.88;2.05;;;;;;;10.95;71.24;93500.59;5010872;28;20065;-72
2021/05/18 05:33:17;;;;;;;3.10;1.42;;;;;;;11.12;70.08;93492.50;5010755;28;20347;-72
2021/05/18 05:35:43;;;;;;;2.75;1.55;;;;;;;11.15;70.88;93499.81;5010339;28;20026;-72
2021/05/18 05:38:08;;;;;;;11.55;2.20;;;;;;;11.12;68.74;93497.81;5010461;28;20022;-72
2021/05/18 05:40:34;;;;;;;3.05;1.48;;;;;;;11.03;68.24;93503.22;5009349;28;20074;-72
2021/05/18 05:43:00;;;;;;;2.83;1.38;;;;;;;10.99;68.26;93510.31;4992006;28;20438;-73
2021/05/18 05:45:25;;;;;;;2.65;1.38;;;;;;;11.04;69.21;93504.78;5010486;28;20037;-72
2021/05/18 05:47:51;;;;;;;3.60;1.83;;;;;;;11.16;70.11;93498.72;4992407;28;20037;-72
2021/05/18 05:50:17;;;;;;;1.90;1.30;;;;;;;11.29;70.05;93499.56;5010452;28;20053;-72
2021/05/18 05:52:42;;;;;;;6.30;1.50;;;;;;;11.47;70.76;93499.44;5010080;28;20092;-72
2021/05/18 05:55:09;;;;;;;4.45;1.20;;;;;;;11.59;67.77;93488.81;5010284;28;20140;-72
2021/05/18 05:57:36;;;;;;;1.60;1.17;;;;;;;11.58;66.57;93511.28;5010315;28;20030;-72
2021/05/18 06:00:08;;;;;;;2.40;1.45;;;;;;;11.39;67.84;93504.50;5009053;28;20030;-72
2021/05/18 06:02:33;;;;;;;4.05;1.25;;;;;;;11.50;66.55;93496.09;4993530;28;20022;-72
2021/05/18 06:04:59;;;;;;;5.28;1.60;;;;;;;11.52;65.48;93504.56;4992042;28;20055;-72
2021/05/18 06:07:24;;;;;;;7.05;1.27;;;;;;;11.56;66.17;93508.94;4992118;28;20025;-73
2021/05/18 06:09:55;;;;;;;6.82;1.15;;;;;;;11.58;66.10;93512.06;4992153;28;20385;-72
2021/05/18 06:15:29;;;;;;;9.00;1.60;;;;;;;11.45;66.11;93524.56;5009873;28;20029;-72
2021/05/18 06:42:29;;;;;;;1.58;1.00;;;;;;;12.07;62.96;93506.16;5010191;28;20037;-73
2021/05/18 06:47:38;;;;;;;2.17;1.00;;;;;;;12.30;60.89;93511.09;5009657;28;20040;-73
2021/05/18 06:52:39;;;;;;;3.10;1.15;;;;;;;12.37;62.35;93528.09;5012184;28;20033;-73
2021/05/18 06:55:08;;;;;;;2.17;1.05;;;;;;;12.35;62.08;93538.34;4995458;28;20445;-79
2021/05/18 06:57:36;;;;;;;1.73;1.20;;;;;;;12.29;62.38;93531.66;5013073;28;20033;-75
2021/05/18 07:00:12;;;;;;;2.08;1.00;;;;;;;12.19;61.36;93543.56;4995312;28;20025;-73
2021/05/18 07:02:40;;;;;;;1.20;0.80;;;;;;;12.26;63.22;93532.34;4995335;28;20022;-76
2021/05/18 07:05:12;;;;;;;3.83;1.40;;;;;;;12.32;61.80;93532.91;4996331;28;20017;-78
2021/05/18 07:07:38;;;;;;;0.77;0.70;;;;;;;12.40;59.17;93534.72;5013301;28;20495;-78
2021/05/18 07:10:04;;;;;;;2.40;1.20;;;;;;;12.51;59.19;93532.38;4995274;28;20026;-77
2021/05/18 07:12:30;;;;;;;1.50;0.93;;;;;;;12.62;59.11;93542.31;4995116;28;20034;-76
2021/05/18 07:14:58;;;;;;;2.67;0.90;;;;;;;12.77;59.11;93535.50;4995347;28;20485;-77
2021/05/18 07:17:24;;;;;;;1.52;0.80;;;;;;;12.96;58.09;93510.88;4995064;28;20042;-77
2021/05/18 07:19:50;;;;;;;7.22;0.90;;;;;;;13.11;57.27;93535.38;5013049;28;20037;-77
2021/05/18 07:22:15;;;;;;;1.38;0.77;;;;;;;13.02;55.51;93522.91;4995051;28;20125;-76
2021/05/18 07:24:43;;;;;;;1.75;0.85;;;;;;;12.93;55.90;93534.84;5012532;28;20084;-76
2021/05/18 07:27:08;;;;;;;0.82;0.60;;;;;;;12.83;54.83;93530.72;5012769;28;20021;-77
2021/05/18 07:29:34;;;;;;;2.92;0.65;;;;;;;12.91;54.73;93558.47;4995374;28;20030;-77
2021/05/18 07:31:59;;;;;;;2.00;0.80;;;;;;;12.90;55.67;93541.63;5012590;28;20164;-76
2021/05/18 07:34:24;;;;;;;8.68;0.88;;;;;;;12.89;55.80;93548.09;5012667;28;20025;-76
2021/05/18 07:36:50;;;;;;;4.80;1.00;;;;;;;12.98;56.55;93543.41;5012516;28;20045;-75
2021/05/18 07:39:15;;;;;;;0.52;0.52;;;;;;;13.00;54.97;93549.19;4994623;28;20402;-71
2021/05/18 07:41:41;;;;;;;4.75;0.68;;;;;;;13.16;57.35;93537.84;5012461;28;20489;-72
2021/05/18 07:44:07;;;;;;;7.18;0.70;;;;;;;13.25;55.51;93543.84;5012402;28;20408;-73
2021/05/18 07:46:32;;;;;;;5.03;0.85;;;;;;;13.29;54.44;93557.31;5012489;28;20026;-73
2021/05/18 07:59:35;;;;;;;2.10;0.90;;;;;;;13.20;53.33;93544.06;5011872;28;20057;-73
2021/05/18 08:05:20;;;;;;;5.93;1.02;;;;;;;13.46;54.59;93556.34;4932375;29;20044;-73
2021/05/18 08:07:46;;;;;;;11.85;0.80;;;;;;;13.39;51.63;93563.03;4932546;29;20035;-74
2021/05/18 08:12:47;;;;;;;6.88;0.70;;;;;;;13.35;53.58;93547.97;5011851;28;20100;-73
2021/05/18 08:15:34;;;;;;;2.13;0.43;;;;;;;13.45;54.20;93563.56;5011731;28;20041;-74
2021/05/18 10:38:39;;;;;;;18.60;0.90;;;;;;;16.18;42.52;93554.88;5009946;28;20022;-69
2021/05/18 10:41:13;;;;;;;1.08;0.60;;;;;;;16.11;42.80;93562.00;4992445;28;20121;-69
2021/05/18 10:43:40;;;;;;;16.02;1.65;;;;;;;16.09;43.14;93564.28;4992091;28;20026;-69
2021/05/18 10:46:14;;;;;;;8.48;0.93;;;;;;;16.13;43.33;93573.19;5009859;28;20092;-69
2021/05/18 10:48:42;;;;;;;7.82;1.05;;;;;;;16.14;43.14;93567.47;4991974;28;20504;-70
2021/05/18 10:51:25;;;;;;;2.78;0.52;;;;;;;15.85;43.30;93571.47;4991810;28;20033;-70
2021/05/18 10:54:18;;;;;;;6.25;0.60;;;;;;;15.50;42.48;93583.00;5009333;28;20057;-70
2021/05/18 10:56:53;;;;;;;5.63;0.40;;;;;;;15.31;43.37;93583.75;4991969;28;20105;-70
2021/05/18 10:59:39;;;;;;;16.48;1.10;;;;;;;15.34;44.63;93579.56;4991857;28;20489;-71
2021/05/18 11:02:08;;;;;;;11.20;0.85;;;;;;;15.36;45.68;93567.34;5009026;28;20034;-72
2021/05/18 11:04:47;;;;;;;13.93;1.15;;;;;;;15.27;46.12;93585.56;4991811;28;20041;-74
2021/05/18 11:07:19;;;;;;;7.93;0.90;;;;;;;15.30;44.90;93592.91;4991667;28;20119;-74
2021/05/18 11:09:45;;;;;;;2.17;0.73;;;;;;;15.35;44.93;93573.84;5009560;28;20500;-73
2021/05/18 11:12:19;;;;;;;3.22;0.57;;;;;;;15.41;44.10;93574.38;4991621;28;20034;-73
2021/05/18 11:14:44;;;;;;;3.70;0.50;;;;;;;15.51;43.34;93571.13;5009664;28;20474;-72
2021/05/18 11:17:17;;;;;;;6.47;0.90;;;;;;;15.44;42.84;93569.06;4991705;28;20133;-72
2021/05/18 11:19:54;;;;;;;3.80;0.60;;;;;;;15.56;42.35;93578.13;5009844;28;20105;-73
2021/05/18 11:23:19;;;;;;;0.55;0.40;;;;;;;15.76;40.45;93568.22;4991344;28;20393;-73
2021/05/18 11:25:08;;;;;;;0.98;0.57;;;;;;;16.02;39.49;93562.22;5009269;28;20413;-73
2021/05/18 11:27:34;;;;;;;4.18;0.50;;;;;;;16.20;38.37;93539.16;4991744;28;20049;-72
2021/05/18 11:30:00;;;;;;;3.70;0.57;;;;;;;16.32;38.72;93548.19;4991686;28;20069;-74
2021/05/18 11:32:26;;;;;;;3.53;0.45;;;;;;;16.41;39.07;93552.19;4991194;28;20504;-74
2021/05/18 11:34:58;;;;;;;4.20;0.60;;;;;;;16.60;39.17;93545.22;4991841;28;20346;-73
2021/05/18 11:37:28;;;;;;;1.38;0.50;;;;;;;16.80;35.91;93554.78;5009983;28;20081;-74
2021/05/18 11:40:14;;;;;;;2.90;0.93;;;;;;;16.77;36.52;93558.22;5012840;28;20026;-73
2021/05/18 11:42:39;;;;;;;0.65;0.35;;;;;;;16.79;37.57;93547.06;4995112;28;20128;-73
2021/05/18 11:45:16;;;;;;;2.65;0.75;;;;;;;16.86;35.91;93558.00;5012870;28;20549;-73
2021/05/18 11:47:44;;;;;;;2.70;0.40;;;;;;;16.82;36.58;93538.31;5012775;28;20036;-73
2021/05/18 11:50:19;;;;;;;6.25;0.80;;;;;;;17.03;39.01;93549.41;5012421;28;20449;-73
2021/05/18 11:52:44;;;;;;;3.85;0.73;;;;;;;16.99;39.65;93545.88;4994773;28;20038;-73
2021/05/18 11:55:28;;;;;;;18.35;1.35;;;;;;;17.14;36.63;93536.13;4994864;28;20084;-74
2021/05/18 11:57:56;;;;;;;3.70;0.77;;;;;;;17.31;34.81;93545.59;5012234;28;20524;-74
2021/05/18 12:00:24;;;;;;;1.95;0.63;;;;;;;17.12;33.60;93557.25;4994497;28;20033;-74
2021/05/18 12:02:59;;;;;;;1.42;0.50;;;;;;;17.33;34.94;93546.00;5012199;28;20030;-73
2021/05/18 12:05:24;;;;;;;5.53;0.68;;;;;;;17.43;34.23;93555.41;4994685;28;20121;-72
2021/05/18 12:07:50;;;;;;;0.60;0.30;;;;;;;17.38;33.84;93580.72;5012538;28;20068;-73
2021/05/18 12:10:35;;;;;;;2.95;0.45;;;;;;;17.39;33.85;93552.63;4994775;28;20402;-74
2021/05/18 12:13:03;;;;;;;4.03;0.60;;;;;;;17.43;33.51;93569.63;5012114;28;20084;-73
2021/05/18 12:15:28;;;;;;;4.57;0.40;;;;;;;17.50;34.11;93547.41;4994461;28;20030;-73
2021/05/18 12:17:56;;;;;;;1.83;0.57;;;;;;;17.47;33.68;93556.22;5011740;28;20121;-72
2021/05/18 12:20:23;;;;;;;0.38;0.30;;;;;;;17.40;34.24;93550.72;5011984;28;20036;-71
2021/05/18 12:22:50;;;;;;;0.90;0.47;;;;;;;17.25;34.13;93541.66;5011858;28;20061;-73
2021/05/18 12:25:35;;;;;;;1.83;0.60;;;;;;;16.87;35.06;93564.91;5012047;28;20060;-73
2021/05/18 12:28:12;;;;;;;5.13;0.30;;;;;;;16.83;34.82;93545.25;4994252;28;20397;-72
2021/05/18 12:30:40;;;;;;;1.38;0.45;;;;;;;16.97;33.63;93540.09;4994376;28;20030;-73
2021/05/18 12:33:07;;;;;;;5.32;0.47;;;;;;;17.10;34.74;93540.69;4994190;28;20389;-73
2021/05/18 12:35:32;;;;;;;2.28;0.50;;;;;;;17.30;32.04;93543.25;5011872;28;20033;-73
2021/05/18 12:37:58;;;;;;;1.65;0.65;;;;;;;17.31;31.62;93551.00;4994120;28;20022;-74
2021/05/18 12:40:30;;;;;;;1.55;0.60;;;;;;;17.16;32.58;93541.16;5011927;28;20524;-73
2021/05/18 12:43:23;;;;;;;0.80;0.32;;;;;;;17.32;32.77;93552.56;4994031;28;20022;-73
2021/05/18 12:46:05;;;;;;;1.13;0.40;;;;;;;17.37;32.42;93554.91;5011600;28;20092;-73
2021/05/18 12:48:38;;;;;;;2.13;0.63;;;;;;;17.51;31.29;93553.59;4993491;28;20065;-73
2021/05/18 12:51:21;;;;;;;0.98;0.50;;;;;;;17.47;31.52;93563.53;5011245;28;20079;-72
2021/05/18 12:53:47;;;;;;;0.30;0.30;;;;;;;17.45;32.23;93556.56;5011377;28;20030;-72
2021/05/18 12:56:27;;;;;;;3.05;0.38;;;;;;;17.64;30.55;93558.38;5011196;28;20502;-72
2021/05/18 12:59:09;;;;;;;0.80;0.30;;;;;;;17.56;32.11;93562.09;4993675;28;20043;-72
2021/05/18 13:01:42;;;;;;;1.10;0.30;;;;;;;17.55;32.20;93554.41;5011370;28;20108;-72
2021/05/18 13:04:10;;;;;;;0.22;0.22;;;;;;;17.64;31.45;93558.38;5011307;28;20034;-72
2021/05/18 13:06:46;;;;;;;1.63;0.57;;;;;;;17.98;31.00;93558.44;4993700;28;20029;-72
2021/05/18 13:09:25;;;;;;;0.50;0.45;;;;;;;18.19;30.65;93530.94;5009367;28;20036;-72
2021/05/18 13:12:12;;;;;;;0.98;0.50;;;;;;;18.46;29.81;93547.03;5011193;28;20108;-72
2021/05/18 13:15:19;;;;;;;2.25;0.45;;;;;;;18.61;29.12;93558.75;4993439;28;20409;-72
2021/05/18 13:17:53;;;;;;;2.75;0.75;;;;;;;18.47;30.27;93551.28;4918816;29;20054;-69
2021/05/18 13:20:20;;;;;;;0.30;0.30;;;;;;;18.57;30.45;93544.44;4984801;28;20413;-71
2021/05/18 13:22:50;;;;;;;8.43;0.50;;;;;;;18.79;30.12;93537.34;4991098;28;20022;-71
2021/05/18 13:28:03;;;;;;;0.95;0.40;;;;;;;19.41;28.93;93534.72;4991103;28;20030;-70
2021/05/18 13:30:30;;;;;;;0.75;0.30;;;;;;;19.75;28.03;93539.97;4991163;28;20509;-71
2021/05/18 13:32:56;;;;;;;1.30;0.32;;;;;;;20.35;26.23;93535.94;4973562;28;20540;-70
2021/05/18 13:35:25;;;;;;;3.17;0.40;;;;;;;21.07;26.01;93519.81;4990808;28;20101;-71
2021/05/18 13:37:51;;;;;;;0.63;0.20;;;;;;;21.60;25.19;93545.34;4973528;28;20085;-70
2021/05/18 13:40:18;;;;;;;2.72;0.50;;;;;;;22.14;24.38;93567.66;4991030;28;20026;-71
2021/05/18 13:42:48;;;;;;;4.13;0.55;;;;;;;22.09;23.40;93551.78;4973541;28;20061;-71
2021/05/18 13:45:13;;;;;;;2.53;0.70;;;;;;;22.51;23.71;93544.66;4991178;28;20537;-71
2021/05/18 13:47:39;;;;;;;4.15;0.73;;;;;;;23.02;24.82;93548.63;4991059;28;20040;-71
2021/05/18 13:50:05;;;;;;;2.05;0.50;;;;;;;23.28;24.60;93551.88;4990652;28;20018;-72
2021/05/18 13:52:30;;;;;;;1.40;0.40;;;;;;;24.02;22.02;93551.59;4973202;28;20383;-71
2021/05/18 13:54:56;;;;;;;3.85;0.57;;;;;;;24.46;21.36;93547.16;4990762;28;20085;-71
2021/05/18 13:57:22;;;;;;;5.30;0.88;;;;;;;24.85;22.14;93539.66;4973431;28;20065;-71
2021/05/18 13:59:49;;;;;;;8.63;0.77;;;;;;;24.48;22.93;93555.69;4989197;28;20478;-71
2021/05/18 14:02:16;;;;;;;2.13;0.68;;;;;;;24.53;22.70;93552.56;4990667;28;20026;-70
2021/05/18 14:04:42;;;;;;;0.90;0.40;;;;;;;24.23;22.86;93559.50;4990577;28;20037;-70
2021/05/18 14:09:55;;;;;;;2.92;0.85;;;;;;;24.35;23.01;93552.00;4990377;28;20057;-71
2021/05/18 14:12:21;;;;;;;2.13;0.57;;;;;;;24.35;22.90;93547.31;4990059;28;20019;-71
2021/05/18 14:14:46;;;;;;;4.85;0.60;;;;;;;23.94;22.88;93561.03;4990382;28;20018;-71
2021/05/18 14:17:11;;;;;;;4.28;0.90;;;;;;;24.32;23.23;93550.88;4983024;28;20045;-71
2021/05/18 14:19:37;;;;;;;4.03;0.50;;;;;;;24.13;23.18;93552.25;5009954;28;20022;-72
2021/05/18 14:22:02;;;;;;;5.20;1.00;;;;;;;24.54;23.12;93559.53;5009744;28;20511;-72
2021/05/18 14:24:50;;;;;;;3.03;0.52;;;;;;;24.59;22.51;93564.56;4992171;28;20092;-71
2021/05/18 14:27:18;;;;;;;3.17;0.50;;;;;;;23.70;22.49;93563.56;5004587;28;20085;-76
2021/05/18 14:29:44;;;;;;;4.60;0.60;;;;;;;23.43;23.23;93553.31;4972899;28;20022;-75
2021/05/18 14:32:10;;;;;;;1.13;0.43;;;;;;;23.26;23.12;93556.94;4972691;28;20121;-75
2021/05/18 14:34:35;;;;;;;6.35;0.45;;;;;;;23.48;23.63;93556.78;4988112;28;20347;-76
2021/05/18 14:37:01;;;;;;;2.08;0.52;;;;;;;24.08;24.03;93555.44;4990100;28;20050;-76
2021/05/18 14:39:37;;;;;;;3.88;0.40;;;;;;;24.76;21.71;93554.56;4990404;28;20029;-75
2021/05/18 14:44:46;;;;;;;2.75;0.88;;;;;;;24.96;21.97;93556.66;5009786;28;20033;-75
2021/05/18 14:47:19;;;;;;;3.45;0.70;;;;;;;25.26;19.94;93563.22;5009882;28;20022;-75
2021/05/18 14:55:20;;;;;;;6.10;0.75;;;;;;;25.07;20.46;93551.03;5009532;28;20052;-75
2021/05/18 14:57:46;;;;;;;1.48;0.50;;;;;;;25.34;20.79;93567.38;5009597;28;20113;-74
2021/05/18 15:00:12;;;;;;;2.35;0.50;;;;;;;25.52;21.02;93548.75;5009709;28;20036;-76
2021/05/18 15:02:37;;;;;;;1.75;0.60;;;;;;;25.76;20.52;93549.50;5009457;28;20400;-75
2021/05/18 15:05:04;;;;;;;2.47;0.60;;;;;;;25.78;19.84;93560.78;4990898;28;20037;-76
2021/05/18 15:07:29;;;;;;;1.33;0.57;;;;;;;25.60;19.97;93546.66;4972490;28;20049;-75
2021/05/18 15:09:55;;;;;;;1.08;0.50;;;;;;;25.47;19.51;93548.47;4991945;28;20054;-76
2021/05/18 15:12:20;;;;;;;2.83;0.50;;;;;;;25.49;19.24;93537.91;4988152;28;20033;-75
2021/05/18 15:14:45;;;;;;;1.80;0.47;;;;;;;24.98;19.43;93527.78;4995972;28;20100;-75
2021/05/18 15:17:11;;;;;;;5.60;0.73;;;;;;;25.56;19.91;93552.19;4993048;28;20057;-78
2021/05/18 15:19:36;;;;;;;7.80;0.60;;;;;;;25.71;19.05;93544.53;4993764;28;20033;-74
2021/05/18 15:22:04;;;;;;;1.33;0.60;;;;;;;25.52;19.33;93542.53;4996242;28;20034;-73
2021/05/18 15:24:29;;;;;;;2.55;0.60;;;;;;;25.54;19.80;93546.38;4976035;28;20045;-75
2021/05/18 15:26:55;;;;;;;1.15;0.50;;;;;;;25.98;18.81;93532.75;4976145;28;20034;-76
2021/05/18 15:29:21;;;;;;;2.72;0.60;;;;;;;26.09;18.79;93552.44;4993828;28;20081;-76
2021/05/18 15:31:47;;;;;;;1.45;0.55;;;;;;;25.66;18.92;93539.53;4995460;28;20165;-74
2021/05/18 15:34:13;;;;;;;1.30;0.60;;;;;;;25.14;19.07;93545.47;4995135;28;20033;-77
2021/05/18 15:36:39;;;;;;;1.38;0.52;;;;;;;25.31;19.60;93543.66;5005655;28;20022;-78
2021/05/18 15:39:05;;;;;;;1.02;0.50;;;;;;;25.86;18.96;93553.22;4992934;28;20038;-75
2021/05/18 15:41:31;;;;;;;3.17;0.50;;;;;;;25.78;19.11;93543.63;4993340;28;20521;-77
2021/05/18 15:43:56;;;;;;;0.95;0.47;;;;;;;25.96;18.50;93548.78;4993149;28;20035;-77
2021/05/18 15:46:23;;;;;;;1.05;0.52;;;;;;;26.33;18.51;93538.72;4996957;28;20030;-77
2021/05/18 15:48:49;;;;;;;0.90;0.60;;;;;;;26.38;18.71;93541.72;4975440;28;20402;-76
2021/05/18 15:51:14;;;;;;;0.75;0.60;;;;;;;26.08;18.10;93545.44;4970481;28;20029;-77
2021/05/18 15:53:40;;;;;;;2.13;0.63;;;;;;;26.02;18.44;93534.22;5012313;28;20508;-77
2021/05/18 15:56:07;;;;;;;2.67;0.65;;;;;;;25.36;19.43;93552.16;5007019;28;20438;-77
2021/05/18 15:58:33;;;;;;;1.98;0.73;;;;;;;24.51;20.58;93554.94;4975432;28;20170;-75
2021/05/18 16:00:58;;;;;;;4.30;0.77;;;;;;;23.32;22.29;93554.59;5001470;28;20502;-75
2021/05/18 16:03:25;;;;;;;1.15;0.63;;;;;;;22.58;23.38;93554.69;4976769;28;20402;-75
2021/05/18 16:05:50;;;;;;;3.38;0.77;;;;;;;21.96;24.00;93556.88;4975204;28;20561;-74
2021/05/18 16:11:01;;;;;;;1.00;0.80;;;;;;;20.91;25.96;93550.00;5009309;28;20515;-75
2021/05/18 16:13:27;;;;;;;1.58;0.45;;;;;;;20.64;26.77;93546.88;4975275;28;20475;-73
2021/05/18 16:15:57;;;;;;;1.90;0.70;;;;;;;20.53;27.52;93546.81;4992313;28;20159;-73
2021/05/18 16:18:23;;;;;;;3.05;0.77;;;;;;;20.29;27.42;93548.28;5010769;28;20037;-73
2021/05/18 16:20:48;;;;;;;1.88;0.80;;;;;;;20.06;27.39;93537.78;4994460;28;20024;-74
2021/05/18 16:23:14;;;;;;;1.88;0.70;;;;;;;19.84;28.21;93547.72;4994485;28;20026;-72
2021/05/18 16:25:39;;;;;;;3.80;0.80;;;;;;;19.50;29.48;93547.13;4994215;28;20033;-70
2021/05/18 16:28:04;;;;;;;2.95;0.63;;;;;;;19.32;29.18;93547.78;4994054;28;20401;-71
2021/05/18 16:30:30;;;;;;;1.20;0.60;;;;;;;19.23;30.14;93540.03;5011876;28;20025;-72
2021/05/18 16:32:55;;;;;;;0.93;0.65;;;;;;;19.31;29.77;93546.22;4994273;28;20041;-73
2021/05/18 16:35:21;;;;;;;0.93;0.65;;;;;;;19.40;29.28;93543.22;5012218;28;20056;-74
2021/05/18 16:37:46;;;;;;;3.50;0.63;;;;;;;19.47;30.20;93542.47;5012003;28;20489;-75
2021/05/18 16:40:13;;;;;;;1.80;0.73;;;;;;;19.36;30.74;93543.19;5011536;28;20033;-74
2021/05/18 16:42:39;;;;;;;4.60;0.68;;;;;;;19.38;30.48;93537.41;4994098;28;20018;-75
2021/05/18 16:45:07;;;;;;;0.73;0.52;;;;;;;19.46;30.12;93536.31;4993982;28;20033;-76